Albany, Texas
Current Conditions -  °F | °C
As of 8:15 AM on Friday 19 Dec 2014 (Local Time) from KBKD Reporting Station
Haze Haze  
Wind Chill: 47°   Ceiling: 1900
Heat Index: 47°   Visibility: 4mi
Dew Point: 46°   Wind: 3mph
Humidity: 96%   Direction: 40°NE
Pressure: 30.18"   Gusts: NA
Location:  32.72°N, 99.3°W
Report Text: KBKD 191415Z AUTO 04003KT 4SM BR SCT007 OVC019 08/08 A3018 RMK AO2 T00810075
Loading
Personal Weather Stations






























Interactive Weather Map New forecast layout! Learn more

10-Day Weather Forecast

Advertisements
Track Severe Weather on mobile